Time;durP1;ratioP1;P1;durP2;ratioP2;P2;SDS_P1;SDS_P2;PMS_P1;PMS_P2;Temp;Humidity;BMP_temperature;BMP_pressure;BME280_temperature;BME280_humidity;BME280_pressure;Samples;Min_cycle;Max_cycle;Signal;HPM_P1;HPM_P2
2024/03/06 00:02:11;;;;;;;12.83;6.17;;;;;;;-2.87;100.00;103182.75;5014839;28;20151;-68
2024/03/06 00:04:37;;;;;;;14.77;7.37;;;;;;;-2.90;100.00;103174.06;5016537;28;20241;-67
2024/03/06 00:07:03;;;;;;;23.47;9.00;;;;;;;-2.84;100.00;103193.16;5017098;28;20096;-66
2024/03/06 00:09:28;;;;;;;13.97;7.93;;;;;;;-3.06;100.00;103162.97;5014690;28;20265;-65
2024/03/06 00:11:55;;;;;;;15.53;7.10;;;;;;;-2.95;100.00;103189.78;5016473;28;20063;-67
2024/03/06 00:14:22;;;;;;;20.53;7.73;;;;;;;-2.95;100.00;103197.59;5014585;28;20038;-66
2024/03/06 00:16:50;;;;;;;14.23;7.00;;;;;;;-3.03;100.00;103189.00;5012156;28;20285;-65
2024/03/06 00:19:20;;;;;;;15.25;7.80;;;;;;;-3.30;100.00;103147.59;5011567;28;20272;-68
2024/03/06 00:21:46;;;;;;;14.13;6.70;;;;;;;-3.25;100.00;103159.69;5011347;28;20430;-70
2024/03/06 00:24:15;;;;;;;20.50;8.53;;;;;;;-3.10;100.00;103182.13;5012006;28;20265;-65
2024/03/06 00:26:41;;;;;;;16.93;7.40;;;;;;;-3.13;100.00;103183.03;5012433;28;20084;-65
2024/03/06 00:29:08;;;;;;;16.55;7.47;;;;;;;-3.17;100.00;103180.47;5012540;28;20284;-66
2024/03/06 00:31:34;;;;;;;18.65;8.90;;;;;;;-3.13;100.00;103188.25;5012606;28;20054;-62
2024/03/06 00:33:59;;;;;;;13.80;7.93;;;;;;;-3.26;100.00;103181.41;5012935;28;20026;-67
2024/03/06 00:36:25;;;;;;;21.43;8.63;;;;;;;-3.28;100.00;103171.88;5012605;28;20137;-68
2024/03/06 00:38:50;;;;;;;22.13;7.90;;;;;;;-3.26;100.00;103181.41;5012394;28;20500;-66
2024/03/06 00:41:16;;;;;;;13.70;7.80;;;;;;;-3.39;100.00;103179.81;5011883;28;20029;-64
2024/03/06 00:43:42;;;;;;;18.40;9.00;;;;;;;-3.35;100.00;103171.09;5011932;28;20402;-64
2024/03/06 00:46:07;;;;;;;24.33;8.37;;;;;;;-3.22;100.00;103190.06;5012567;28;20068;-69
2024/03/06 00:48:33;;;;;;;20.27;8.07;;;;;;;-3.23;100.00;103191.81;5012593;28;20609;-67
2024/03/06 00:50:59;;;;;;;24.77;7.87;;;;;;;-3.24;100.00;103191.81;5012436;28;20061;-63
2024/03/06 00:53:24;;;;;;;14.17;7.17;;;;;;;-3.30;100.00;103181.47;5010906;28;20034;-67
2024/03/06 00:55:50;;;;;;;13.10;7.10;;;;;;;-3.25;100.00;103198.78;5012072;28;20441;-69
2024/03/06 00:58:16;;;;;;;15.37;8.13;;;;;;;-3.53;100.00;103156.47;5012532;28;20397;-66
2024/03/06 01:00:41;;;;;;;21.37;8.93;;;;;;;-3.52;100.00;103157.34;5012180;28;20494;-67
2024/03/06 01:03:07;;;;;;;18.77;8.10;;;;;;;-3.51;100.00;103167.75;5012626;28;20041;-65
2024/03/06 01:05:34;;;;;;;14.43;8.00;;;;;;;-3.48;100.00;103175.53;5015812;28;20125;-63
2024/03/06 01:07:59;;;;;;;13.95;7.45;;;;;;;-3.44;100.00;103190.28;5011972;28;20172;-65
2024/03/06 01:10:25;;;;;;;22.07;8.17;;;;;;;-3.58;100.00;103163.47;5012053;28;20068;-66
2024/03/06 01:12:51;;;;;;;14.37;7.87;;;;;;;-3.39;100.00;103190.25;5016364;28;20279;-61
2024/03/06 01:15:16;;;;;;;18.27;6.53;;;;;;;-3.44;100.00;103186.81;5012214;28;20076;-63
2024/03/06 01:17:42;;;;;;;15.83;7.73;;;;;;;-3.63;100.00;103154.84;5011717;28;20057;-67
2024/03/06 01:20:08;;;;;;;13.37;6.90;;;;;;;-3.43;100.00;103191.16;5012875;28;20037;-65
2024/03/06 01:22:35;;;;;;;17.40;8.63;;;;;;;-4.03;100.00;103086.66;5012728;28;20045;-65
2024/03/06 01:25:01;;;;;;;11.57;6.85;;;;;;;-3.58;100.00;103165.22;5011555;28;20056;-67
2024/03/06 01:27:32;;;;;;;12.60;6.70;;;;;;;-3.52;100.00;103172.97;5012033;28;20046;-65
2024/03/06 01:29:58;;;;;;;18.52;6.25;;;;;;;-3.50;100.00;103182.50;5013680;28;20045;-66
2024/03/06 01:32:23;;;;;;;12.80;7.07;;;;;;;-3.48;100.00;103196.38;5013074;28;20080;-66
2024/03/06 01:34:49;;;;;;;12.87;7.43;;;;;;;-3.46;100.00;103194.66;5013924;28;20079;-67
2024/03/06 01:37:15;;;;;;;15.00;7.13;;;;;;;-3.45;100.00;103193.78;5019687;28;20123;-63
2024/03/06 01:39:41;;;;;;;10.27;6.93;;;;;;;-3.56;100.00;103185.16;5017069;28;20128;-68
2024/03/06 01:42:06;;;;;;;15.10;7.47;;;;;;;-3.91;100.00;103124.72;5014692;28;20041;-67
2024/03/06 01:44:32;;;;;;;14.17;7.27;;;;;;;-3.48;100.00;103192.91;5015647;28;20033;-63
2024/03/06 01:46:57;;;;;;;14.27;6.80;;;;;;;-3.47;100.00;103199.84;5014156;28;20049;-65
2024/03/06 01:49:25;;;;;;;14.10;6.37;;;;;;;-3.71;100.00;103164.47;5014245;28;20041;-64
2024/03/06 01:51:55;;;;;;;18.48;8.48;;;;;;;-3.56;100.00;103182.56;5015416;28;20041;-66
2024/03/06 01:54:22;;;;;;;21.38;8.23;;;;;;;-3.73;100.00;103154.94;5014350;28;20037;-63
2024/03/06 01:56:49;;;;;;;19.52;7.88;;;;;;;-3.53;100.00;103197.31;5020684;28;20052;-62
2024/03/06 01:59:16;;;;;;;14.45;7.13;;;;;;;-3.64;100.00;103173.97;5021245;28;20561;-66
2024/03/06 02:01:43;;;;;;;14.32;7.30;;;;;;;-3.93;100.00;103129.94;5019752;28;20457;-68
2024/03/06 02:04:11;;;;;;;19.52;7.80;;;;;;;-3.82;100.00;103156.72;5019024;28;20045;-68
2024/03/06 02:06:39;;;;;;;13.85;6.68;;;;;;;-3.86;100.00;103148.97;5015654;28;20038;-66
2024/03/06 02:09:06;;;;;;;12.77;7.15;;;;;;;-3.63;100.00;103185.25;5016586;28;20030;-66
2024/03/06 02:11:32;;;;;;;23.73;7.15;;;;;;;-3.59;100.00;103192.16;5018861;28;20037;-68
2024/03/06 02:13:58;;;;;;;16.52;6.07;;;;;;;-3.97;100.00;103127.38;5016175;28;20042;-69
2024/03/06 02:16:24;;;;;;;12.27;6.75;;;;;;;-3.69;100.00;103178.34;5019927;28;20037;-68
2024/03/06 02:18:54;;;;;;;24.48;7.40;;;;;;;-3.76;100.00;103169.72;5015419;28;20045;-67
2024/03/06 02:21:21;;;;;;;31.77;7.82;;;;;;;-3.75;100.00;103174.06;5014729;28;20046;-65
2024/03/06 02:23:47;;;;;;;18.40;6.93;;;;;;;-3.72;100.00;103177.50;5014831;28;20042;-69
2024/03/06 02:26:15;;;;;;;16.17;6.67;;;;;;;-3.72;100.00;103182.72;5015866;28;20588;-67
2024/03/06 02:28:47;;;;;;;26.75;7.25;;;;;;;-3.82;100.00;103166.28;5013648;28;20057;-66
2024/03/06 02:31:13;;;;;;;20.23;6.18;;;;;;;-3.70;100.00;103205.25;5014691;28;20124;-65
2024/03/06 02:33:39;;;;;;;10.77;5.33;;;;;;;-3.71;100.00;103198.34;5014321;28;20137;-67
2024/03/06 02:36:05;;;;;;;13.90;6.47;;;;;;;-3.88;100.00;103169.81;5014162;28;20273;-67
2024/03/06 02:38:31;;;;;;;18.23;6.43;;;;;;;-3.97;100.00;103163.81;5014698;28;20037;-66
2024/03/06 02:40:56;;;;;;;13.23;5.50;;;;;;;-3.73;100.00;103200.09;5013563;28;20359;-68
2024/03/06 02:43:22;;;;;;;9.37;4.60;;;;;;;-3.75;100.00;103201.84;5014775;28;20042;-64
2024/03/06 02:45:47;;;;;;;12.93;7.03;;;;;;;-3.89;100.00;103172.41;5013952;28;20048;-65
2024/03/06 02:48:13;;;;;;;17.90;6.50;;;;;;;-3.76;100.00;103206.19;5014577;28;20041;-66
2024/03/06 02:50:39;;;;;;;12.63;5.07;;;;;;;-3.81;100.00;103200.13;5014727;28;20084;-67
2024/03/06 02:53:04;;;;;;;7.93;4.90;;;;;;;-3.81;100.00;103202.72;5012849;28;20434;-67
2024/03/06 02:55:30;;;;;;;14.13;6.53;;;;;;;-3.91;100.00;103190.66;5014322;28;20037;-66
2024/03/06 02:57:55;;;;;;;8.63;5.00;;;;;;;-3.77;100.00;103211.38;5015874;28;20033;-66
2024/03/06 03:00:21;;;;;;;10.40;5.30;;;;;;;-4.00;100.00;103169.03;5014519;28;20096;-68
2024/03/06 03:02:47;;;;;;;7.63;5.03;;;;;;;-3.92;100.00;103186.31;5014007;28;20029;-66
2024/03/06 03:05:13;;;;;;;14.80;6.93;;;;;;;-3.95;100.00;103193.28;5014135;28;20188;-67
2024/03/06 03:07:38;;;;;;;10.20;5.23;;;;;;;-3.86;100.00;103203.63;5013969;28;20030;-68
2024/03/06 03:10:04;;;;;;;10.80;6.00;;;;;;;-3.98;100.00;103195.91;5014126;28;20562;-64
2024/03/06 03:12:30;;;;;;;11.90;5.40;;;;;;;-3.98;100.00;103195.91;5015105;28;20506;-64
2024/03/06 03:14:56;;;;;;;13.03;5.40;;;;;;;-3.94;100.00;103200.22;5013141;28;20061;-64
2024/03/06 03:17:22;;;;;;;9.63;4.90;;;;;;;-4.09;100.00;103190.75;5013956;28;20129;-66
2024/03/06 03:19:47;;;;;;;13.53;5.10;;;;;;;-4.17;100.00;103171.75;5013973;28;20042;-65
2024/03/06 03:22:13;;;;;;;11.50;5.07;;;;;;;-3.94;100.00;103210.63;5015598;28;20092;-66
2024/03/06 03:24:41;;;;;;;18.63;5.97;;;;;;;-4.01;100.00;103203.75;5015465;28;20088;-69
2024/03/06 03:27:07;;;;;;;8.88;5.03;;;;;;;-3.91;100.00;103221.91;5012611;28;20088;-67
2024/03/06 03:29:33;;;;;;;7.28;5.10;;;;;;;-4.11;100.00;103185.56;5013994;28;20111;-70
2024/03/06 03:31:59;;;;;;;13.73;5.27;;;;;;;-3.95;100.00;103214.13;5012131;28;20041;-66
2024/03/06 03:34:24;;;;;;;13.97;5.03;;;;;;;-3.90;100.00;103217.56;5013152;28;20046;-65
2024/03/06 03:36:50;;;;;;;9.73;4.60;;;;;;;-4.00;100.00;103203.75;5013574;28;20466;-65
2024/03/06 03:39:16;;;;;;;7.83;4.73;;;;;;;-3.91;100.00;103223.63;5013501;28;20036;-66
2024/03/06 03:41:48;;;;;;;11.97;4.90;;;;;;;-4.05;100.00;103192.47;5013388;28;20492;-67
2024/03/06 03:44:15;;;;;;;7.68;4.00;;;;;;;-4.07;100.00;103200.28;5014295;28;20034;-66
2024/03/06 03:46:42;;;;;;;9.45;5.50;;;;;;;-4.00;100.00;103202.88;5013855;28;20034;-68
2024/03/06 03:49:11;;;;;;;12.25;5.68;;;;;;;-3.99;100.00;103207.22;5013490;28;20033;-67
2024/03/06 03:51:38;;;;;;;18.85;7.95;;;;;;;-3.99;100.00;103202.00;5013510;28;20042;-68
2024/03/06 03:54:04;;;;;;;7.78;4.80;;;;;;;-4.16;100.00;103179.53;5014900;28;20053;-66
2024/03/06 03:56:29;;;;;;;11.98;4.97;;;;;;;-4.47;100.00;103120.75;5017543;28;20041;-66
2024/03/06 03:58:57;;;;;;;13.13;5.30;;;;;;;-4.15;100.00;103160.44;5013383;28;20026;-66
2024/03/06 04:01:23;;;;;;;14.75;4.90;;;;;;;-4.19;100.00;103160.47;5014226;28;20037;-65
2024/03/06 04:03:49;;;;;;;21.20;10.43;;;;;;;-4.03;100.00;103195.97;5015352;28;20042;-69
2024/03/06 04:06:14;;;;;;;22.90;8.03;;;;;;;-4.34;100.00;103137.16;5015046;28;20056;-67
2024/03/06 04:08:41;;;;;;;15.87;6.97;;;;;;;-4.39;100.00;103138.03;5014097;28;20041;-67
2024/03/06 04:11:07;;;;;;;13.05;3.97;;;;;;;-4.04;100.00;103190.75;5012838;28;20041;-66
2024/03/06 04:13:36;;;;;;;10.20;4.50;;;;;;;-4.03;100.00;103195.97;5013503;28;20037;-67
2024/03/06 04:16:02;;;;;;;11.00;5.32;;;;;;;-4.06;100.00;103181.19;5012119;28;20049;-66
2024/03/06 04:18:29;;;;;;;8.93;5.07;;;;;;;-4.10;100.00;103176.03;5013562;28;20465;-69
2024/03/06 04:20:54;;;;;;;7.40;3.90;;;;;;;-4.27;100.00;103144.06;5011535;28;20058;-67
2024/03/06 04:23:20;;;;;;;14.00;3.70;;;;;;;-4.14;100.00;103167.38;5011681;28;20461;-64
2024/03/06 04:25:48;;;;;;;8.63;4.20;;;;;;;-4.06;100.00;103180.34;5012324;28;20120;-70
2024/03/06 04:28:15;;;;;;;6.68;3.80;;;;;;;-4.42;100.00;103113.78;5012421;28;20041;-69
2024/03/06 04:30:40;;;;;;;5.57;3.72;;;;;;;-4.06;100.00;103186.41;5012490;28;20119;-70
2024/03/06 04:33:06;;;;;;;6.93;4.13;;;;;;;-4.11;100.00;103162.16;5013861;28;20038;-65
2024/03/06 04:35:32;;;;;;;15.93;4.43;;;;;;;-4.17;100.00;103157.00;5013340;28;20096;-72
2024/03/06 04:37:57;;;;;;;5.97;3.80;;;;;;;-4.09;100.00;103170.81;5011283;28;20145;-67
2024/03/06 04:40:25;;;;;;;9.13;4.33;;;;;;;-4.07;100.00;103174.25;5011166;28;20088;-70
2024/03/06 04:42:50;;;;;;;111.90;12.55;;;;;;;-4.11;100.00;103172.56;5012270;28;20065;-71
2024/03/06 04:45:16;;;;;;;8.73;4.33;;;;;;;-4.54;100.00;103095.66;5012683;28;20080;-68
2024/03/06 04:47:42;;;;;;;11.40;3.88;;;;;;;-4.02;100.00;103182.06;5018232;28;20117;-70
2024/03/06 04:50:12;;;;;;;5.60;4.10;;;;;;;-4.14;100.00;103156.97;5032850;28;20415;-68
2024/03/06 04:52:38;;;;;;;17.80;5.57;;;;;;;-4.28;100.00;103137.13;5031706;28;20059;-71
2024/03/06 04:55:05;;;;;;;12.05;4.13;;;;;;;-4.45;100.00;103106.00;5035882;28;20076;-68
2024/03/06 04:57:30;;;;;;;8.38;4.13;;;;;;;-4.41;100.00;103126.78;5040248;28;20041;-72
2024/03/06 04:59:58;;;;;;;10.97;4.13;;;;;;;-4.18;100.00;103159.59;5035642;28;20116;-75
2024/03/06 05:02:25;;;;;;;13.95;4.53;;;;;;;-4.16;100.00;103163.06;5030654;28;20041;-71
2024/03/06 05:04:51;;;;;;;11.90;4.78;;;;;;;-4.29;100.00;103140.59;5030893;28;20128;-69
2024/03/06 05:07:16;;;;;;;15.33;4.20;;;;;;;-4.45;100.00;103113.81;5032021;28;20132;-68
2024/03/06 05:09:42;;;;;;;21.10;4.63;;;;;;;-4.19;100.00;103165.69;5031166;28;20045;-69
2024/03/06 05:12:08;;;;;;;9.47;4.10;;;;;;;-4.60;100.00;103103.50;5030206;28;20045;-68
2024/03/06 05:14:33;;;;;;;8.23;3.97;;;;;;;-4.25;100.00;103164.00;5031113;28;20068;-67
2024/03/06 05:16:59;;;;;;;7.50;4.07;;;;;;;-4.35;100.00;103149.28;5029790;28;20140;-68
2024/03/06 05:19:34;;;;;;;5.93;4.37;;;;;;;-4.39;100.00;103144.97;5029886;28;20033;-69
2024/03/06 05:22:00;;;;;;;5.72;3.78;;;;;;;-4.45;100.00;103143.28;5033695;28;20067;-72
2024/03/06 05:24:26;;;;;;;12.80;5.27;;;;;;;-4.26;100.00;103172.66;5031036;28;20037;-70
2024/03/06 05:26:52;;;;;;;11.23;3.83;;;;;;;-4.44;100.00;103128.53;5028132;28;20119;-68
2024/03/06 05:29:18;;;;;;;7.03;3.92;;;;;;;-4.42;100.00;103145.00;5031066;28;20054;-68
2024/03/06 05:31:43;;;;;;;11.67;4.07;;;;;;;-4.16;100.00;103174.34;5029450;28;20034;-70
2024/03/06 05:34:09;;;;;;;8.40;4.10;;;;;;;-4.34;100.00;103135.41;5029675;28;20044;-70
2024/03/06 05:36:35;;;;;;;7.23;4.47;;;;;;;-4.26;100.00;103137.97;5028969;28;20041;-71
2024/03/06 05:39:00;;;;;;;8.30;4.57;;;;;;;-4.08;100.00;103164.72;5013423;28;20143;-70
2024/03/06 05:41:26;;;;;;;14.30;4.93;;;;;;;-4.20;100.00;103136.19;5012449;28;20037;-71
2024/03/06 05:43:51;;;;;;;6.13;4.03;;;;;;;-4.10;100.00;103137.84;5031324;28;20052;-72
2024/03/06 05:46:19;;;;;;;6.97;4.10;;;;;;;-3.92;100.00;103160.28;5032264;28;20045;-70
2024/03/06 05:48:45;;;;;;;21.33;5.38;;;;;;;-4.02;100.00;103130.00;5030663;28;20535;-68
2024/03/06 05:51:10;;;;;;;13.27;6.00;;;;;;;-3.92;100.00;103131.66;5031024;28;20042;-66
2024/03/06 05:53:40;;;;;;;7.63;4.23;;;;;;;-4.07;100.00;103101.38;5032741;28;20513;-69
2024/03/06 05:56:06;;;;;;;9.23;5.75;;;;;;;-3.74;100.00;103146.28;5031096;28;20041;-70
2024/03/06 05:58:34;;;;;;;10.32;4.30;;;;;;;-3.79;100.00;103138.47;5029535;28;20041;-66
2024/03/06 06:00:59;;;;;;;14.52;4.68;;;;;;;-3.80;99.59;103126.34;5034125;28;20049;-67
2024/03/06 06:03:25;;;;;;;8.80;4.47;;;;;;;-3.63;99.32;103143.56;5033503;28;20037;-66
2024/03/06 06:05:50;;;;;;;12.60;5.17;;;;;;;-4.18;99.25;103051.19;5031194;28;20097;-67
2024/03/06 06:08:16;;;;;;;27.03;4.47;;;;;;;-3.56;98.89;103145.22;5030087;28;20081;-69
2024/03/06 06:10:41;;;;;;;12.37;4.90;;;;;;;-3.45;98.31;103159.91;5030815;28;20412;-70
2024/03/06 06:13:07;;;;;;;10.60;5.00;;;;;;;-3.69;98.49;103109.78;5013127;28;20556;-70
2024/03/06 06:15:33;;;;;;;16.17;4.50;;;;;;;-3.81;98.47;103069.94;5029056;28;20417;-68
2024/03/06 06:17:58;;;;;;;7.77;5.20;;;;;;;-3.33;98.15;103145.88;5030589;28;20037;-67
2024/03/06 06:20:24;;;;;;;14.00;5.23;;;;;;;-3.34;98.44;103130.25;5029753;28;20079;-70
2024/03/06 06:22:49;;;;;;;6.90;4.77;;;;;;;-3.19;97.49;103137.91;5031602;28;20421;-68
2024/03/06 06:25:16;;;;;;;13.20;5.17;;;;;;;-3.09;96.69;103151.72;5032389;28;20131;-69
2024/03/06 06:27:43;;;;;;;11.68;4.18;;;;;;;-3.32;96.48;103099.84;5034126;28;20093;-69
2024/03/06 06:30:12;;;;;;;11.65;5.45;;;;;;;-3.45;95.52;103063.50;5034880;28;20504;-69
2024/03/06 06:32:38;;;;;;;12.85;5.03;;;;;;;-3.34;94.67;103073.81;5034352;28;20041;-69
2024/03/06 06:35:05;;;;;;;9.33;5.20;;;;;;;-3.13;94.34;103109.19;5033864;28;20090;-69
2024/03/06 06:37:30;;;;;;;9.23;4.63;;;;;;;-2.99;94.07;103124.66;5033765;28;20045;-69
2024/03/06 06:39:56;;;;;;;6.20;4.63;;;;;;;-2.87;93.63;103148.84;5033696;28;20072;-68
2024/03/06 06:42:22;;;;;;;8.10;4.80;;;;;;;-3.02;93.13;103104.69;5033426;28;20389;-66
2024/03/06 06:44:47;;;;;;;9.87;4.43;;;;;;;-2.79;92.75;103138.31;5033480;28;20042;-69
2024/03/06 06:47:13;;;;;;;20.70;5.00;;;;;;;-3.06;93.19;103097.81;5033467;28;20075;-69
2024/03/06 06:49:38;;;;;;;15.67;4.17;;;;;;;-2.78;93.01;103131.38;5032939;28;20094;-70
2024/03/06 06:52:04;;;;;;;17.20;5.20;;;;;;;-2.81;93.30;103121.84;5036107;28;20538;-66
2024/03/06 06:54:30;;;;;;;47.50;6.37;;;;;;;-3.30;93.43;103027.72;5033623;28;20094;-72
2024/03/06 06:56:55;;;;;;;15.60;6.17;;;;;;;-2.58;93.23;103131.97;5032167;28;20091;-70
2024/03/06 06:59:22;;;;;;;16.73;4.37;;;;;;;-2.51;92.77;103144.03;5065458;28;20080;-67
2024/03/06 07:01:48;;;;;;;12.63;4.63;;;;;;;-2.63;93.16;103089.41;5036888;28;20030;-69
2024/03/06 07:04:16;;;;;;;10.50;4.03;;;;;;;-3.44;92.07;102948.00;5037133;28;20033;-70
2024/03/06 07:06:42;;;;;;;13.85;4.85;;;;;;;-2.25;91.23;103134.09;5058644;28;20045;-65
2024/03/06 07:09:09;;;;;;;11.67;5.30;;;;;;;-2.37;91.25;103086.44;5037621;28;20052;-69
2024/03/06 07:11:34;;;;;;;11.25;4.55;;;;;;;-2.13;90.13;103114.78;5033911;28;20124;-66
2024/03/06 07:14:00;;;;;;;13.40;4.57;;;;;;;-1.95;89.69;103131.91;5034625;28;20163;-68
2024/03/06 07:16:26;;;;;;;11.80;4.53;;;;;;;-2.05;87.85;103101.59;5033955;28;20489;-71
2024/03/06 07:18:51;;;;;;;16.10;5.37;;;;;;;-1.82;87.62;103127.34;5032491;28;20049;-70
2024/03/06 07:21:17;;;;;;;16.20;5.30;;;;;;;-2.03;86.93;103081.53;5033123;28;20052;-70
2024/03/06 07:23:44;;;;;;;14.68;4.38;;;;;;;-1.71;85.70;103126.28;5032400;28;20044;-69
2024/03/06 07:26:10;;;;;;;12.60;4.30;;;;;;;-1.90;85.44;103093.53;5033037;28;20444;-69
2024/03/06 07:28:39;;;;;;;11.25;3.67;;;;;;;-1.83;84.67;103097.75;5036201;28;20092;-73
2024/03/06 07:31:04;;;;;;;18.33;5.07;;;;;;;-1.54;85.32;103133.81;5037252;28;20045;-70
2024/03/06 07:33:31;;;;;;;9.80;4.77;;;;;;;-1.61;84.93;103088.66;5034590;28;20301;-69
2024/03/06 07:35:56;;;;;;;11.87;4.97;;;;;;;-2.47;83.80;102931.78;5062535;28;20044;-69
2024/03/06 07:38:23;;;;;;;34.93;5.30;;;;;;;-1.85;84.57;103028.16;5032193;28;20391;-67
2024/03/06 07:40:48;;;;;;;16.90;4.23;;;;;;;-1.53;83.63;103096.34;5034526;28;20567;-71
2024/03/06 07:43:14;;;;;;;12.53;3.70;;;;;;;-1.51;83.99;103098.94;5015381;28;20284;-69
2024/03/06 07:45:40;;;;;;;17.90;4.47;;;;;;;-1.40;83.09;103104.84;5033137;28;20442;-70
2024/03/06 07:48:19;;;;;;;11.90;4.00;;;;;;;-1.41;82.49;103071.75;5015650;28;20049;-71
2024/03/06 07:50:48;;;;;;;23.27;4.80;;;;;;;-1.27;81.04;103101.09;5030832;28;20981;-70
2024/03/06 07:53:14;;;;;;;14.25;3.72;;;;;;;-1.49;81.64;103053.56;5031411;28;20279;-70
2024/03/06 07:55:40;;;;;;;21.90;4.50;;;;;;;-1.46;81.79;103022.16;5014364;28;20049;-69
2024/03/06 07:58:08;;;;;;;20.80;4.10;;;;;;;-1.01;81.01;103084.88;5030832;28;20424;-67
2024/03/06 08:00:34;;;;;;;12.73;3.83;;;;;;;-1.15;80.01;103045.09;5031446;28;20280;-70
2024/03/06 08:03:00;;;;;;;9.70;4.00;;;;;;;-0.99;78.37;103060.41;5033862;28;20268;-68
2024/03/06 08:05:26;;;;;;;13.10;3.40;;;;;;;-0.89;76.11;103066.31;5031925;28;20701;-66
2024/03/06 08:07:52;;;;;;;21.47;4.20;;;;;;;-0.72;76.77;103073.78;5031393;28;20359;-68
2024/03/06 08:10:18;;;;;;;19.50;5.10;;;;;;;-0.68;76.39;103071.06;5027469;28;20048;-68
2024/03/06 08:12:45;;;;;;;12.87;3.83;;;;;;;-0.80;75.07;103039.09;5031621;28;20047;-71
2024/03/06 08:15:12;;;;;;;15.27;5.40;;;;;;;-0.53;74.80;103075.13;5031552;28;20291;-70
2024/03/06 08:17:44;;;;;;;23.43;4.87;;;;;;;-0.47;74.11;103082.81;5032131;28;20320;-69
2024/03/06 08:20:10;;;;;;;21.10;5.27;;;;;;;-0.52;74.43;103055.91;5032755;28;20327;-69
2024/03/06 08:22:42;;;;;;;18.97;3.63;;;;;;;-0.29;74.04;103075.41;5021404;28;20272;-67
2024/03/06 08:25:10;;;;;;;16.07;4.83;;;;;;;-0.38;71.63;103059.03;5030680;28;20311;-66
2024/03/06 08:27:37;;;;;;;15.60;3.97;;;;;;;-0.23;71.76;103067.44;5030386;28;20304;-66
2024/03/06 08:30:04;;;;;;;13.93;3.13;;;;;;;-0.18;69.77;103065.56;5031142;28;20350;-65
2024/03/06 08:32:35;;;;;;;9.53;3.00;;;;;;;-0.14;69.31;103069.81;5031181;28;20292;-69
2024/03/06 08:35:12;;;;;;;33.83;4.20;;;;;;;-0.07;68.56;103063.53;5027501;28;20272;-66
2024/03/06 08:37:41;;;;;;;8.90;3.20;;;;;;;-0.04;66.89;103073.94;5030272;28;20269;-68
2024/03/06 08:40:10;;;;;;;;;;;;;;;-0.09;66.58;103068.81;5030908;28;20326;-69
2024/03/06 08:42:35;;;;;;;11.05;4.88;;;;;;;-0.18;66.55;103044.63;5031266;28;19963;-69
2024/03/06 08:45:01;;;;;;;12.77;2.63;;;;;;;-0.17;66.68;103041.97;5029484;28;20065;-69
2024/03/06 08:47:29;;;;;;;13.95;4.40;;;;;;;-0.07;66.74;103048.69;5031525;28;20041;-69
2024/03/06 08:49:55;;;;;;;10.53;2.60;;;;;;;0.06;66.25;103062.34;5031673;28;20045;-66
2024/03/06 08:52:21;;;;;;;10.77;2.97;;;;;;;0.06;66.78;103049.25;5032223;28;20523;-71
2024/03/06 08:54:46;;;;;;;21.30;5.03;;;;;;;0.01;68.73;103024.94;5014486;28;20073;-68
2024/03/06 08:57:12;;;;;;;13.97;4.00;;;;;;;0.20;71.08;103056.72;5018951;28;20041;-69
2024/03/06 08:59:38;;;;;;;12.57;3.10;;;;;;;0.25;70.08;103066.19;5041018;28;20037;-66
2024/03/06 09:02:14;;;;;;;14.00;3.00;;;;;;;0.14;70.31;103030.69;5022805;28;20037;-71
2024/03/06 09:04:44;;;;;;;21.57;5.77;;;;;;;0.26;71.35;103036.47;5029417;28;20397;-68
2024/03/06 09:07:10;;;;;;;11.13;3.10;;;;;;;0.33;71.52;103034.56;5033181;28;20370;-69
2024/03/06 09:09:36;;;;;;;13.13;3.87;;;;;;;0.35;71.51;103031.91;5031740;28;20271;-68
2024/03/06 09:12:06;;;;;;;13.83;3.27;;;;;;;0.44;71.05;103040.38;5030318;28;20628;-69
2024/03/06 09:14:32;;;;;;;11.07;2.73;;;;;;;0.18;70.20;102980.78;5031589;28;20461;-68
2024/03/06 09:16:58;;;;;;;18.70;3.77;;;;;;;0.71;70.24;103049.22;5024233;28;20297;-68
2024/03/06 09:19:24;;;;;;;8.20;2.70;;;;;;;0.65;69.56;103025.81;5030119;28;20323;-67
2024/03/06 09:21:50;;;;;;;15.97;4.70;;;;;;;0.69;69.53;103019.56;5031258;28;20497;-68
2024/03/06 09:24:15;;;;;;;10.23;3.87;;;;;;;0.77;68.46;103016.72;5031265;28;20082;-68
2024/03/06 09:26:42;;;;;;;11.30;3.57;;;;;;;0.71;66.94;103009.88;5030607;28;20140;-68
2024/03/06 09:29:07;;;;;;;12.40;2.63;;;;;;;0.66;67.40;103019.66;5031330;28;20136;-69
2024/03/06 09:31:33;;;;;;;13.00;2.70;;;;;;;0.73;66.40;103010.69;5026710;28;20375;-67
2024/03/06 09:33:58;;;;;;;10.07;2.37;;;;;;;0.74;63.72;103008.94;5029581;28;20384;-67
2024/03/06 09:36:25;;;;;;;13.13;2.40;;;;;;;0.88;63.49;103026.00;5029063;28;20026;-69
2024/03/06 09:38:52;;;;;;;17.63;2.80;;;;;;;0.99;63.67;103019.56;5011011;28;20041;-69
2024/03/06 09:41:18;;;;;;;14.17;2.60;;;;;;;1.03;64.72;103021.19;5013435;28;20297;-69
2024/03/06 09:43:45;;;;;;;11.33;2.30;;;;;;;0.72;65.00;102964.41;5012716;28;20269;-68
2024/03/06 09:46:10;;;;;;;9.13;2.60;;;;;;;1.00;65.48;103003.78;5011318;28;20048;-66
2024/03/06 09:48:40;;;;;;;6.73;2.00;;;;;;;1.15;65.71;103013.78;5011087;28;20260;-70
2024/03/06 09:51:06;;;;;;;16.00;3.57;;;;;;;1.05;66.20;102982.66;5013614;28;20041;-68
2024/03/06 09:53:33;;;;;;;6.10;2.30;;;;;;;1.00;63.90;102974.91;5030495;28;20302;-67
2024/03/06 09:56:00;;;;;;;6.30;1.83;;;;;;;1.02;63.16;102970.47;5020878;28;20273;-68
2024/03/06 09:58:25;;;;;;;22.57;3.20;;;;;;;1.24;64.47;102986.44;5015969;28;20300;-69
2024/03/06 10:00:53;;;;;;;13.33;2.50;;;;;;;1.39;64.29;102999.03;5015948;28;20828;-67
2024/03/06 10:03:18;;;;;;;8.37;2.40;;;;;;;1.34;65.05;102973.84;5023037;28;20512;-69
2024/03/06 10:05:44;;;;;;;14.93;4.43;;;;;;;1.41;65.94;102980.63;5033843;28;20348;-70
2024/03/06 10:08:10;;;;;;;7.67;2.00;;;;;;;1.38;65.87;102971.06;5034795;28;20061;-67
2024/03/06 10:10:36;;;;;;;5.77;2.17;;;;;;;1.39;66.41;102980.66;5035722;28;20680;-69
2024/03/06 10:13:02;;;;;;;8.70;2.40;;;;;;;1.17;66.61;102925.41;5035441;28;20030;-68
2024/03/06 10:15:29;;;;;;;11.43;2.47;;;;;;;1.52;66.04;102984.63;5034900;28;20809;-70
2024/03/06 10:18:14;;;;;;;4.20;1.70;;;;;;;1.49;66.58;102966.34;5034572;28;20042;-69
2024/03/06 10:20:41;;;;;;;5.93;2.23;;;;;;;1.37;66.79;102958.84;5034739;28;20276;-69
2024/03/06 10:23:08;;;;;;;6.60;1.90;;;;;;;1.32;66.99;102954.66;5033974;28;20299;-69
2024/03/06 10:25:34;;;;;;;10.20;2.30;;;;;;;1.36;66.91;102951.03;5034678;28;20387;-68
2024/03/06 10:28:05;;;;;;;5.70;3.40;;;;;;;1.46;67.46;102960.34;5035457;28;20375;-70
2024/03/06 10:30:31;;;;;;;5.17;2.10;;;;;;;1.31;68.39;102950.34;5034384;28;20042;-71
2024/03/06 10:32:56;;;;;;;8.07;2.00;;;;;;;1.37;68.94;102958.84;5033593;28;20283;-69
2024/03/06 10:35:22;;;;;;;5.53;2.17;;;;;;;1.00;70.16;102901.44;5032501;28;20125;-68
2024/03/06 10:37:50;;;;;;;7.03;2.37;;;;;;;1.18;69.98;102934.13;5033425;28;20045;-66
2024/03/06 10:40:17;;;;;;;5.80;2.70;;;;;;;1.11;70.18;102930.81;5033772;28;20045;-67
2024/03/06 10:42:44;;;;;;;6.90;1.97;;;;;;;0.83;70.37;102865.25;5035190;28;20660;-67
2024/03/06 10:45:14;;;;;;;11.60;2.10;;;;;;;1.28;71.32;102938.16;5034080;28;20332;-68
2024/03/06 10:47:40;;;;;;;5.50;2.53;;;;;;;1.31;70.62;102935.44;5033804;28;20370;-69
2024/03/06 10:50:10;;;;;;;6.13;2.17;;;;;;;1.35;70.53;102946.69;5033528;28;20306;-68
2024/03/06 10:52:38;;;;;;;12.43;2.37;;;;;;;1.30;71.55;102943.38;5033658;28;20748;-67
2024/03/06 10:55:04;;;;;;;11.83;3.33;;;;;;;1.23;71.76;102932.22;5034186;28;20354;-68
2024/03/06 10:57:31;;;;;;;7.33;2.20;;;;;;;1.20;71.59;102906.94;5032440;28;20317;-71
2024/03/06 11:00:00;;;;;;;10.67;2.40;;;;;;;1.25;71.37;102914.66;5034311;28;20272;-71
2024/03/06 11:02:27;;;;;;;13.33;2.37;;;;;;;1.36;71.14;102914.28;5033577;28;20275;-70
2024/03/06 11:04:54;;;;;;;3.43;2.07;;;;;;;1.53;71.19;102941.69;5032299;28;20775;-70
2024/03/06 11:07:20;;;;;;;7.20;2.20;;;;;;;1.41;71.17;102918.47;5033001;28;20384;-70
2024/03/06 11:09:48;;;;;;;12.57;2.00;;;;;;;1.32;70.82;102904.78;5033630;28;20344;-70
2024/03/06 11:12:37;;;;;;;8.52;2.17;;;;;;;1.38;71.31;102894.94;5033720;28;20072;-69
2024/03/06 11:15:19;;;;;;;7.60;2.07;;;;;;;1.61;70.61;102935.34;5032593;28;20116;-71